Shirley Center, Massachusetts
Current Conditions -  °F | °C
As of 12:52 AM on Thursday 23 Oct 2014 (Local Time) from KFIT Reporting Station
Light Rain Light Rain  
Wind Chill: 45°   Ceiling: 1300
Heat Index: 49°   Visibility: 9mi
Dew Point: 44°   Wind: 9mph
Humidity: 83%   Direction: 20°NNE
Pressure: 29.85"   Gusts: 21mph
Location:  42.5726°N, 71.6476°W
Report Text: KFIT 230452Z AUTO 02008G18KT 340V060 9SM -RA OVC013 09/07 A2985 RMK AO2 SLP109 P0006 T00940067 401110089
Loading
Personal Weather Stations






























Interactive Weather Map
Tropical Storm Tracking
New forecast layout! Learn more

10-Day Weather Forecast

Advertisements
Track Severe Weather on mobile